Time;durP1;ratioP1;P1;durP2;ratioP2;P2;SDS_P1;SDS_P2;PMS_P1;PMS_P2;Temp;Humidity;BMP_temperature;BMP_pressure;BME280_temperature;BME280_humidity;BME280_pressure;Samples;Min_cycle;Max_cycle;Signal;HPM_P1;HPM_P2
2023/11/09 00:02:00;;;;;;;1.70;1.60;;;2.90;95.00;;;;;;5015499;28;20785;-86
2023/11/09 00:04:29;;;;;;;2.43;1.80;;;2.90;95.10;;;;;;5019050;28;20222;-86
2023/11/09 00:06:55;;;;;;;1.90;1.80;;;2.90;95.40;;;;;;5022604;28;20203;-87
2023/11/09 00:09:23;;;;;;;3.37;1.80;;;2.90;95.40;;;;;;5009105;28;20206;-85
2023/11/09 00:11:50;;;;;;;4.20;1.87;;;2.90;95.30;;;;;;5016994;28;20249;-87
2023/11/09 00:14:16;;;;;;;3.00;1.80;;;2.80;95.40;;;;;;5018879;28;20549;-87
2023/11/09 00:16:46;;;;;;;1.97;1.77;;;2.80;95.30;;;;;;5018421;28;20202;-86
2023/11/09 00:19:13;;;;;;;2.67;1.50;;;2.80;95.40;;;;;;5020527;28;20223;-87
2023/11/09 00:21:41;;;;;;;2.00;1.50;;;2.80;95.50;;;;;;5015186;28;20720;-86
2023/11/09 00:24:11;;;;;;;3.80;1.73;;;2.80;95.50;;;;;;5017204;28;20210;-86
2023/11/09 00:26:38;;;;;;;1.50;1.40;;;2.80;95.50;;;;;;5020037;28;20207;-86
2023/11/09 00:29:05;;;;;;;2.27;1.30;;;2.80;95.10;;;;;;5019151;28;20204;-87
2023/11/09 00:31:32;;;;;;;2.00;1.40;;;2.80;95.10;;;;;;5022037;28;20199;-87
2023/11/09 00:33:59;;;;;;;4.37;1.30;;;2.80;95.00;;;;;;5018671;28;20206;-86
2023/11/09 00:36:27;;;;;;;4.00;1.20;;;2.80;94.60;;;;;;5015473;28;20200;-86
2023/11/09 00:38:55;;;;;;;1.40;1.30;;;2.90;94.60;;;;;;5014077;28;20310;-87
2023/11/09 00:41:23;;;;;;;2.97;1.40;;;2.80;94.60;;;;;;5022709;28;20190;-86
2023/11/09 00:43:50;;;;;;;1.50;1.40;;;2.80;94.60;;;;;;5020299;28;20203;-87
2023/11/09 00:46:17;;;;;;;1.67;1.20;;;2.80;94.60;;;;;;5015893;28;20206;-87
2023/11/09 00:48:44;;;;;;;1.20;1.10;;;2.80;94.90;;;;;;5015985;28;20203;-85
2023/11/09 00:51:11;;;;;;;1.20;1.10;;;2.80;94.60;;;;;;5014558;28;20253;-87
2023/11/09 00:53:38;;;;;;;1.77;1.40;;;2.70;94.60;;;;;;5020949;28;20199;-87
2023/11/09 00:56:07;;;;;;;1.70;1.43;;;2.70;94.60;;;;;;5012523;28;20206;-87
2023/11/09 00:58:34;;;;;;;1.47;1.37;;;2.70;94.60;;;;;;5025257;28;20203;-87
2023/11/09 01:01:01;;;;;;;1.30;1.20;;;2.70;94.60;;;;;;5037136;28;20187;-86
2023/11/09 01:03:28;;;;;;;3.73;1.47;;;2.70;94.60;;;;;;5036475;28;20234;-85
2023/11/09 01:05:57;;;;;;;1.50;1.40;;;2.70;94.60;;;;;;5042995;28;20179;-87
2023/11/09 01:08:25;;;;;;;1.60;1.10;;;2.70;94.60;;;;;;5022759;28;20192;-87
2023/11/09 01:10:51;;;;;;;1.67;1.20;;;2.70;94.60;;;;;;5014643;28;20240;-87
2023/11/09 01:13:20;;;;;;;1.33;1.23;;;2.70;94.60;;;;;;5017293;28;20203;-86
2023/11/09 01:15:47;;;;;;;1.50;1.20;;;2.70;94.70;;;;;;5013532;28;20210;-87
2023/11/09 01:18:15;;;;;;;2.03;1.40;;;2.60;94.90;;;;;;5020087;28;20588;-86
2023/11/09 01:20:41;;;;;;;1.43;1.23;;;2.60;95.00;;;;;;5015885;28;20219;-87
2023/11/09 01:23:11;;;;;;;2.17;1.20;;;2.60;95.00;;;;;;5017886;28;20199;-87
2023/11/09 01:25:41;;;;;;;1.23;1.00;;;2.60;94.80;;;;;;5021097;28;20199;-87
2023/11/09 01:28:07;;;;;;;1.30;1.20;;;2.60;94.60;;;;;;5015845;28;20565;-85
2023/11/09 01:30:36;;;;;;;1.47;1.00;;;2.60;94.60;;;;;;5022264;28;20199;-87
2023/11/09 01:33:04;;;;;;;1.20;1.10;;;2.70;94.40;;;;;;5015593;28;20199;-87
2023/11/09 01:35:30;;;;;;;1.27;1.17;;;2.70;93.90;;;;;;5011662;28;20207;-87
2023/11/09 01:37:58;;;;;;;1.20;1.10;;;2.70;94.00;;;;;;5014345;28;20253;-86
2023/11/09 01:40:26;;;;;;;1.23;1.13;;;2.70;93.90;;;;;;5010688;28;20224;-86
2023/11/09 01:42:54;;;;;;;1.37;1.27;;;2.70;94.10;;;;;;5015417;28;20214;-85
2023/11/09 01:45:21;;;;;;;1.07;1.00;;;2.70;93.70;;;;;;5012999;28;20281;-87
2023/11/09 01:47:50;;;;;;;1.07;0.97;;;2.70;94.50;;;;;;5011906;28;20206;-87
2023/11/09 01:50:18;;;;;;;1.10;1.00;;;2.60;93.90;;;;;;5018580;28;20198;-86
2023/11/09 01:52:45;;;;;;;1.40;1.10;;;2.60;93.40;;;;;;5010023;28;20222;-86
2023/11/09 01:55:13;;;;;;;2.13;1.13;;;2.60;93.20;;;;;;5016223;28;20194;-84
2023/11/09 01:57:42;;;;;;;2.53;1.23;;;2.60;93.30;;;;;;5011468;28;20249;-87
2023/11/09 02:00:12;;;;;;;1.30;1.20;;;2.60;93.40;;;;;;5014923;28;20227;-86
2023/11/09 02:02:39;;;;;;;1.33;1.00;;;2.60;93.40;;;;;;5021321;28;20614;-87
2023/11/09 02:05:08;;;;;;;1.10;1.00;;;2.60;93.60;;;;;;5014036;28;20219;-86
2023/11/09 02:07:39;;;;;;;1.40;1.30;;;2.60;93.80;;;;;;5013233;28;20195;-86
2023/11/09 02:10:07;;;;;;;1.27;1.20;;;2.50;93.90;;;;;;5012935;28;20810;-87
2023/11/09 02:12:35;;;;;;;1.73;1.20;;;2.50;93.70;;;;;;5019567;28;20223;-86
2023/11/09 02:15:04;;;;;;;2.10;1.17;;;2.40;93.60;;;;;;5017912;28;21315;-84
2023/11/09 02:17:31;;;;;;;1.30;1.13;;;2.40;93.70;;;;;;5020624;28;20203;-87
2023/11/09 02:19:59;;;;;;;2.63;1.20;;;2.40;93.90;;;;;;5015403;28;20227;-87
2023/11/09 02:22:28;;;;;;;1.67;1.40;;;2.40;93.80;;;;;;5016270;28;20201;-86
2023/11/09 02:24:57;;;;;;;2.80;1.20;;;2.40;94.20;;;;;;5015527;28;20302;-87
2023/11/09 02:27:24;;;;;;;1.37;1.00;;;2.30;94.50;;;;;;5015018;28;20282;-86
2023/11/09 02:29:51;;;;;;;1.03;1.00;;;2.40;94.20;;;;;;5014627;28;20203;-87
2023/11/09 02:32:18;;;;;;;1.23;1.10;;;2.40;93.70;;;;;;5014402;28;20205;-87
2023/11/09 02:34:48;;;;;;;1.77;1.20;;;2.50;93.60;;;;;;5016751;28;20191;-87
2023/11/09 02:37:15;;;;;;;1.37;1.00;;;2.50;93.70;;;;;;5012150;28;20651;-86
2023/11/09 02:39:42;;;;;;;1.20;1.10;;;2.50;93.60;;;;;;5009379;28;20954;-86
2023/11/09 02:42:11;;;;;;;1.10;1.00;;;2.50;94.00;;;;;;5013647;28;20203;-87
2023/11/09 02:44:39;;;;;;;1.20;1.10;;;2.50;93.50;;;;;;5017149;28;20230;-87
2023/11/09 02:47:06;;;;;;;0.80;0.80;;;2.40;93.00;;;;;;5014317;28;20210;-86
2023/11/09 02:49:33;;;;;;;1.17;1.07;;;2.40;92.90;;;;;;5016546;28;20211;-86
2023/11/09 02:52:00;;;;;;;1.30;1.10;;;2.50;93.00;;;;;;5021697;28;20229;-86
2023/11/09 02:54:27;;;;;;;1.30;1.13;;;2.50;93.10;;;;;;5006263;28;20676;-86
2023/11/09 02:56:54;;;;;;;2.90;1.20;;;2.50;93.10;;;;;;5013425;28;20199;-87
2023/11/09 02:59:22;;;;;;;0.90;0.90;;;2.50;93.20;;;;;;5013283;28;20582;-86
2023/11/09 03:01:49;;;;;;;1.80;1.23;;;2.50;93.10;;;;;;5019984;28;20290;-86
2023/11/09 03:04:17;;;;;;;1.30;0.90;;;2.50;92.60;;;;;;5013322;28;20203;-86
2023/11/09 03:06:44;;;;;;;1.13;0.90;;;2.60;92.60;;;;;;5018036;28;20208;-86
2023/11/09 03:09:12;;;;;;;0.70;0.70;;;2.60;92.60;;;;;;5010395;28;20571;-86
2023/11/09 03:11:39;;;;;;;2.13;1.00;;;2.60;92.50;;;;;;5011993;28;20215;-86
2023/11/09 03:14:06;;;;;;;1.10;1.00;;;2.70;92.50;;;;;;5013056;28;20206;-86
2023/11/09 03:16:34;;;;;;;2.63;1.10;;;2.60;92.10;;;;;;5012141;28;20206;-87
2023/11/09 03:19:02;;;;;;;2.13;1.10;;;2.60;91.90;;;;;;5012210;28;20583;-87
2023/11/09 03:21:29;;;;;;;0.90;0.90;;;2.70;91.90;;;;;;5017533;28;20199;-85
2023/11/09 03:23:56;;;;;;;1.10;0.90;;;2.70;91.80;;;;;;5018477;28;20206;-86
2023/11/09 03:26:23;;;;;;;0.90;0.90;;;2.70;91.70;;;;;;5010064;28;20614;-86
2023/11/09 03:28:50;;;;;;;1.70;1.00;;;2.70;92.10;;;;;;5010320;28;20215;-87
2023/11/09 03:31:17;;;;;;;1.20;1.10;;;2.70;91.70;;;;;;5008945;28;20199;-86
2023/11/09 03:33:46;;;;;;;1.67;0.90;;;2.70;91.90;;;;;;5016372;28;20211;-83
2023/11/09 03:36:18;;;;;;;4.07;1.10;;;2.70;91.80;;;;;;5010666;28;20211;-86
2023/11/09 03:38:45;;;;;;;1.57;1.10;;;2.60;91.70;;;;;;5011748;28;20203;-86
2023/11/09 03:41:12;;;;;;;0.97;0.80;;;2.60;92.30;;;;;;5016260;28;20229;-87
2023/11/09 03:43:40;;;;;;;1.30;1.20;;;2.60;92.60;;;;;;5008978;28;20201;-86
2023/11/09 03:46:15;;;;;;;1.23;0.80;;;2.60;92.40;;;;;;5015514;28;20294;-86
2023/11/09 03:48:42;;;;;;;1.50;1.07;;;2.60;91.90;;;;;;5018448;28;20672;-86
2023/11/09 03:51:10;;;;;;;2.53;1.10;;;2.60;92.40;;;;;;5014527;28;20219;-86
2023/11/09 03:53:37;;;;;;;1.30;1.20;;;2.60;91.90;;;;;;5009393;28;20664;-85
2023/11/09 03:56:04;;;;;;;0.83;0.83;;;2.60;91.10;;;;;;5007069;28;20250;-86
2023/11/09 03:58:31;;;;;;;1.20;1.10;;;2.60;91.00;;;;;;5013286;28;20664;-85
2023/11/09 04:00:58;;;;;;;1.30;1.20;;;2.60;91.20;;;;;;5016554;28;20280;-87
2023/11/09 04:03:25;;;;;;;1.43;1.30;;;2.60;91.10;;;;;;5006509;28;20204;-85
2023/11/09 04:05:52;;;;;;;1.80;1.27;;;2.60;91.20;;;;;;5020095;28;20219;-86
2023/11/09 04:08:20;;;;;;;1.30;1.20;;;2.60;91.40;;;;;;5019677;28;20195;-86
2023/11/09 04:10:47;;;;;;;1.30;1.20;;;2.70;91.50;;;;;;5012848;28;20223;-86
2023/11/09 04:13:14;;;;;;;1.63;1.30;;;2.70;91.30;;;;;;5015857;28;20210;-86
2023/11/09 04:15:41;;;;;;;1.20;1.10;;;2.60;91.40;;;;;;5033240;28;20182;-83
2023/11/09 04:18:08;;;;;;;1.40;1.07;;;2.50;91.50;;;;;;5038158;28;20194;-86
2023/11/09 04:20:36;;;;;;;3.33;1.40;;;2.40;91.20;;;;;;5038935;28;20337;-84
2023/11/09 04:23:03;;;;;;;1.23;1.13;;;2.30;91.60;;;;;;5033396;28;20235;-84
2023/11/09 04:25:31;;;;;;;1.50;1.10;;;2.30;91.80;;;;;;5020882;28;20219;-86
2023/11/09 04:27:58;;;;;;;1.20;1.10;;;2.30;91.90;;;;;;5021388;28;20203;-86
2023/11/09 04:30:28;;;;;;;1.53;1.00;;;2.30;92.30;;;;;;5015747;28;20289;-86
2023/11/09 04:32:59;;;;;;;1.20;1.07;;;2.30;92.50;;;;;;5022987;28;20224;-86
2023/11/09 04:35:26;;;;;;;1.27;1.17;;;2.30;92.60;;;;;;5016262;28;20235;-84
2023/11/09 04:37:55;;;;;;;1.07;1.00;;;2.30;92.60;;;;;;5019109;28;20209;-86
2023/11/09 04:40:25;;;;;;;1.40;1.30;;;2.10;92.90;;;;;;5013985;28;20750;-85
2023/11/09 04:42:56;;;;;;;1.30;1.20;;;2.20;93.20;;;;;;5017127;28;20715;-86
2023/11/09 04:45:25;;;;;;;1.30;1.20;;;2.30;93.00;;;;;;5015295;28;20283;-87
2023/11/09 04:47:55;;;;;;;1.30;1.20;;;2.30;92.80;;;;;;5008659;28;20618;-86
2023/11/09 04:50:28;;;;;;;2.60;1.27;;;2.20;93.40;;;;;;5013932;28;20722;-86
2023/11/09 04:53:04;;;;;;;1.33;1.23;;;2.10;93.50;;;;;;5013707;28;20513;-86
2023/11/09 04:55:42;;;;;;;1.40;1.30;;;2.20;93.50;;;;;;5012829;28;20246;-86
2023/11/09 05:09:08;;;;;;;1.40;1.23;;;2.10;93.80;;;;;;5011212;28;20248;-85
2023/11/09 05:11:35;;;;;;;2.27;1.40;;;2.10;94.00;;;;;;5022256;28;20289;-86
2023/11/09 05:14:05;;;;;;;1.70;1.30;;;2.00;94.10;;;;;;5013818;28;20648;-84
2023/11/09 05:16:31;;;;;;;1.50;1.27;;;2.00;94.40;;;;;;5009359;28;20202;-85
2023/11/09 05:18:59;;;;;;;1.50;1.40;;;2.00;94.40;;;;;;5018120;28;20286;-86
2023/11/09 05:21:25;;;;;;;2.83;1.40;;;2.00;94.40;;;;;;5013857;28;20230;-86
2023/11/09 05:23:52;;;;;;;3.23;1.47;;;2.00;94.40;;;;;;5013744;28;20209;-86
2023/11/09 05:26:21;;;;;;;1.90;1.50;;;1.90;94.40;;;;;;5014366;28;20203;-86
2023/11/09 05:28:48;;;;;;;2.03;1.50;;;1.90;94.40;;;;;;5013790;28;20203;-85
2023/11/09 05:31:18;;;;;;;1.27;1.17;;;1.90;94.70;;;;;;5015122;28;20691;-87
2023/11/09 05:33:45;;;;;;;1.90;1.70;;;1.90;95.00;;;;;;5012091;28;20215;-84
2023/11/09 05:36:13;;;;;;;2.20;1.50;;;2.00;94.50;;;;;;5014457;28;20211;-89
2023/11/09 05:38:40;;;;;;;1.70;1.60;;;2.10;94.50;;;;;;5023146;28;20230;-90
2023/11/09 05:41:08;;;;;;;1.30;1.20;;;2.10;94.50;;;;;;5312530;22;20234;-92
2023/11/09 05:43:35;;;;;;;2.23;1.77;;;2.20;94.50;;;;;;5029215;28;20231;-91
2023/11/09 05:46:02;;;;;;;1.50;1.37;;;2.20;94.30;;;;;;5035882;28;20772;-92
2023/11/09 05:48:30;;;;;;;1.57;1.47;;;2.20;94.50;;;;;;5024696;28;20213;-90
2023/11/09 05:50:57;;;;;;;2.40;1.73;;;2.10;94.50;;;;;;5034768;28;20239;-88
2023/11/09 05:53:26;;;;;;;2.50;1.50;;;2.00;94.40;;;;;;5002536;28;20294;-87
2023/11/09 05:55:53;;;;;;;2.40;1.70;;;1.90;94.40;;;;;;5014393;28;20212;-87
2023/11/09 05:58:20;;;;;;;2.00;1.80;;;1.90;94.40;;;;;;5008506;28;20199;-87
2023/11/09 06:00:47;;;;;;;5.13;2.20;;;1.80;94.40;;;;;;5004329;28;20218;-87
2023/11/09 06:03:14;;;;;;;3.57;1.90;;;1.80;94.40;;;;;;5009125;28;20276;-86
2023/11/09 06:05:43;;;;;;;2.90;2.00;;;1.70;94.50;;;;;;5001975;28;20963;-87
2023/11/09 06:08:10;;;;;;;4.90;2.20;;;1.70;94.80;;;;;;5007020;28;20203;-86
2023/11/09 06:10:38;;;;;;;3.13;2.20;;;1.70;95.00;;;;;;5009381;28;20231;-86
2023/11/09 06:13:05;;;;;;;3.67;2.10;;;1.60;95.00;;;;;;5002414;28;20192;-86
2023/11/09 06:15:33;;;;;;;4.97;2.20;;;1.60;95.30;;;;;;5011620;28;20202;-89
2023/11/09 06:18:00;;;;;;;3.87;2.10;;;1.60;95.70;;;;;;5004123;28;20195;-88
2023/11/09 06:20:27;;;;;;;5.70;2.23;;;1.60;95.50;;;;;;5001888;28;20227;-89
2023/11/09 06:22:56;;;;;;;4.20;2.30;;;1.60;95.50;;;;;;5008357;28;20230;-89
2023/11/09 06:25:23;;;;;;;3.30;2.50;;;1.60;95.50;;;;;;5008883;28;20275;-86
2023/11/09 06:27:50;;;;;;;4.00;2.40;;;1.50;95.50;;;;;;5007633;28;20253;-86
2023/11/09 06:30:17;;;;;;;3.43;2.30;;;1.50;95.60;;;;;;5002977;28;20652;-87
2023/11/09 06:32:44;;;;;;;4.00;2.40;;;1.50;95.80;;;;;;5004906;28;20210;-88
2023/11/09 06:35:13;;;;;;;4.10;2.17;;;1.60;95.70;;;;;;5012657;28;20255;-86
2023/11/09 06:37:45;;;;;;;5.43;2.73;;;1.70;95.40;;;;;;4990944;28;20207;-87
2023/11/09 06:40:16;;;;;;;4.20;2.30;;;1.60;95.40;;;;;;5006173;28;20218;-87
2023/11/09 06:42:44;;;;;;;5.17;2.20;;;1.60;95.90;;;;;;5004469;28;20285;-87
2023/11/09 06:45:11;;;;;;;5.03;2.00;;;1.70;95.50;;;;;;5002361;28;20196;-87
2023/11/09 06:47:39;;;;;;;4.50;2.03;;;1.80;95.40;;;;;;5008926;28;20548;-86
2023/11/09 06:50:11;;;;;;;4.10;2.10;;;1.80;95.40;;;;;;5009208;28;20258;-87
2023/11/09 06:52:39;;;;;;;4.57;2.57;;;1.80;95.30;;;;;;5010111;28;20718;-87
2023/11/09 06:55:07;;;;;;;4.77;2.20;;;1.80;95.40;;;;;;5004698;28;20203;-87
2023/11/09 06:57:35;;;;;;;9.17;2.27;;;1.90;95.20;;;;;;5005066;28;20227;-87
2023/11/09 07:00:05;;;;;;;3.17;2.10;;;2.00;95.00;;;;;;5003477;28;20288;-87
2023/11/09 07:02:32;;;;;;;4.00;2.20;;;2.00;94.90;;;;;;5004424;28;20239;-86
2023/11/09 07:04:59;;;;;;;4.80;2.17;;;2.00;94.70;;;;;;5007230;28;20200;-86
2023/11/09 07:07:27;;;;;;;5.83;2.10;;;2.00;94.60;;;;;;5008645;28;20242;-86
2023/11/09 07:09:54;;;;;;;3.47;2.00;;;2.00;94.90;;;;;;5024655;28;20208;-87
2023/11/09 07:12:21;;;;;;;2.83;2.33;;;2.20;94.50;;;;;;5020497;28;20202;-86
2023/11/09 07:14:49;;;;;;;2.23;1.93;;;2.20;94.50;;;;;;5016571;28;20195;-87
2023/11/09 07:17:16;;;;;;;3.83;2.47;;;2.30;94.50;;;;;;5008867;28;20226;-87
2023/11/09 07:19:43;;;;;;;5.43;2.03;;;2.40;94.50;;;;;;5007140;28;20203;-87
2023/11/09 07:22:10;;;;;;;3.67;2.57;;;2.40;94.50;;;;;;5008604;28;20695;-87
2023/11/09 07:24:39;;;;;;;3.97;2.30;;;2.70;94.60;;;;;;5015959;28;20210;-87
2023/11/09 07:27:09;;;;;;;3.57;2.53;;;2.90;93.70;;;;;;5023319;28;20194;-86
2023/11/09 07:29:36;;;;;;;4.50;2.13;;;3.00;93.40;;;;;;5019270;28;20190;-85
2023/11/09 07:32:05;;;;;;;4.53;2.40;;;3.10;93.30;;;;;;5032912;28;20207;-86
2023/11/09 07:34:31;;;;;;;3.13;2.07;;;3.20;93.60;;;;;;5040796;28;20243;-85
2023/11/09 07:37:01;;;;;;;3.13;2.27;;;3.30;93.30;;;;;;5014308;28;20201;-87
2023/11/09 07:39:28;;;;;;;4.50;2.20;;;3.40;93.30;;;;;;5012842;28;20202;-87
2023/11/09 07:41:58;;;;;;;6.77;2.50;;;3.50;92.80;;;;;;5018818;28;20218;-86
2023/11/09 07:44:26;;;;;;;4.83;2.53;;;3.60;93.10;;;;;;5005773;28;20215;-87
2023/11/09 07:46:52;;;;;;;3.27;2.47;;;3.90;92.10;;;;;;5012802;28;20198;-87
2023/11/09 07:49:21;;;;;;;6.03;2.67;;;4.10;91.80;;;;;;5017617;28;20694;-87
2023/11/09 07:51:48;;;;;;;4.00;2.20;;;4.20;92.10;;;;;;5019409;28;20226;-87
2023/11/09 07:54:17;;;;;;;4.37;2.30;;;4.20;92.30;;;;;;5017743;28;20198;-87
2023/11/09 07:56:44;;;;;;;3.07;2.30;;;4.30;92.30;;;;;;4998921;28;20592;-87
2023/11/09 07:59:11;;;;;;;3.77;2.43;;;4.40;92.60;;;;;;5018860;28;20199;-87
2023/11/09 08:01:38;;;;;;;4.97;2.43;;;4.70;91.90;;;;;;5015565;28;20218;-87
2023/11/09 08:04:05;;;;;;;5.53;2.33;;;4.90;91.90;;;;;;5011750;28;20203;-87
2023/11/09 08:06:34;;;;;;;5.87;2.50;;;5.00;91.60;;;;;;5013859;28;20199;-87
2023/11/09 08:09:04;;;;;;;3.80;2.50;;;5.20;91.20;;;;;;5015942;28;20203;-87
2023/11/09 08:11:32;;;;;;;4.47;2.70;;;5.40;90.80;;;;;;5019647;28;20644;-86
2023/11/09 08:13:59;;;;;;;5.40;2.63;;;5.50;90.80;;;;;;5010652;28;20207;-89
2023/11/09 08:16:30;;;;;;;4.67;2.93;;;5.60;90.20;;;;;;5022417;28;20206;-89
2023/11/09 08:18:57;;;;;;;10.03;3.40;;;5.80;89.50;;;;;;5013448;28;20758;-89
2023/11/09 08:21:25;;;;;;;5.68;2.88;;;5.90;89.50;;;;;;5020835;28;20258;-89
2023/11/09 08:23:53;;;;;;;6.32;3.65;;;6.20;89.80;;;;;;5011165;28;20198;-89
2023/11/09 08:26:20;;;;;;;8.70;3.70;;;6.40;87.70;;;;;;5021044;28;20202;-89
2023/11/09 08:28:47;;;;;;;6.07;3.70;;;6.60;83.10;;;;;;5011690;28;20199;-89
2023/11/09 08:31:14;;;;;;;5.95;3.08;;;6.90;83.40;;;;;;5012442;28;20209;-89
2023/11/09 08:33:41;;;;;;;5.00;3.13;;;7.30;78.70;;;;;;5006699;28;20195;-90
2023/11/09 08:36:10;;;;;;;6.65;2.70;;;7.70;72.60;;;;;;5012635;28;20586;-90
2023/11/09 08:38:39;;;;;;;3.65;2.78;;;8.00;49.50;;;;;;5015453;28;20191;-89
2023/11/09 08:41:07;;;;;;;6.85;2.85;;;8.20;46.90;;;;;;5013016;28;20227;-90
2023/11/09 08:43:34;;;;;;;5.78;3.20;;;8.60;41.80;;;;;;5018002;28;20207;-89
2023/11/09 08:46:02;;;;;;;5.70;2.63;;;8.90;42.00;;;;;;5009109;28;20265;-90
2023/11/09 08:48:30;;;;;;;3.80;2.42;;;9.20;36.70;;;;;;5012533;28;20273;-89
2023/11/09 08:51:00;;;;;;;4.55;2.40;;;9.50;37.50;;;;;;5008977;28;20219;-89
2023/11/09 08:53:31;;;;;;;4.68;2.20;;;9.60;34.10;;;;;;5008878;28;20673;-89
2023/11/09 08:55:58;;;;;;;3.80;2.30;;;9.80;32.40;;;;;;5017043;28;20897;-90
2023/11/09 08:58:26;;;;;;;4.32;2.42;;;10.60;28.70;;;;;;5007502;28;20203;-89
2023/11/09 09:00:53;;;;;;;4.13;2.35;;;11.20;24.70;;;;;;5011306;28;20199;-89
2023/11/09 09:03:23;;;;;;;6.20;2.75;;;11.60;25.00;;;;;;5016404;28;20764;-90
2023/11/09 09:05:52;;;;;;;4.80;2.45;;;11.70;25.10;;;;;;5006180;28;20210;-89
2023/11/09 09:08:19;;;;;;;3.97;2.60;;;12.40;21.00;;;;;;5007004;28;20200;-90
2023/11/09 09:10:46;;;;;;;6.63;2.72;;;12.90;19.70;;;;;;5023042;28;20905;-90
2023/11/09 09:13:12;;;;;;;5.30;2.83;;;14.10;16.10;;;;;;5005816;28;20199;-89
2023/11/09 09:15:45;;;;;;;8.60;3.50;;;14.80;15.70;;;;;;5010349;28;20822;-90
2023/11/09 09:18:12;;;;;;;5.85;3.40;;;15.20;13.20;;;;;;5015487;28;20198;-90
2023/11/09 09:20:39;;;;;;;6.97;3.60;;;15.50;12.60;;;;;;5012502;28;20560;-89
2023/11/09 09:23:07;;;;;;;8.55;4.07;;;15.30;13.60;;;;;;5017941;28;20230;-88
2023/11/09 09:25:34;;;;;;;8.13;3.80;;;15.00;13.30;;;;;;5013158;28;20903;-88
2023/11/09 09:28:01;;;;;;;8.80;3.17;;;15.80;12.90;;;;;;5022823;28;20199;-88
2023/11/09 09:30:29;;;;;;;8.20;3.30;;;16.30;9.90;;;;;;5011208;28;20207;-88
2023/11/09 09:33:01;;;;;;;4.65;2.80;;;15.50;10.20;;;;;;5011921;28;20230;-89
2023/11/09 09:35:30;;;;;;;6.85;2.70;;;15.20;12.60;;;;;;5011924;28;20230;-88
2023/11/09 09:37:59;;;;;;;6.05;2.80;;;15.00;12.90;;;;;;5022914;28;20652;-87
2023/11/09 09:40:29;;;;;;;6.75;2.78;;;15.10;12.90;;;;;;5007407;28;20220;-87
2023/11/09 09:42:58;;;;;;;6.53;2.10;;;15.50;12.50;;;;;;5016056;28;20218;-89
2023/11/09 09:45:27;;;;;;;3.25;2.03;;;15.80;12.00;;;;;;5012477;28;20210;-88
2023/11/09 09:47:56;;;;;;;6.65;2.22;;;16.00;10.60;;;;;;5020972;28;20206;-87
2023/11/09 09:50:26;;;;;;;5.72;2.03;;;15.80;9.80;;;;;;5020780;28;20202;-88
2023/11/09 09:52:56;;;;;;;6.47;2.55;;;15.90;10.50;;;;;;5013326;28;20218;-88
2023/11/09 09:55:24;;;;;;;3.90;1.85;;;15.80;9.10;;;;;;5010923;28;20334;-88
2023/11/09 09:57:51;;;;;;;3.80;2.20;;;15.80;8.20;;;;;;5003690;28;20199;-87
2023/11/09 10:00:25;;;;;;;2.58;1.65;;;15.60;8.10;;;;;;5021101;28;20612;-88
2023/11/09 10:02:54;;;;;;;2.78;1.63;;;15.60;8.10;;;;;;4995962;28;20230;-88
2023/11/09 10:05:24;;;;;;;2.97;1.42;;;15.40;8.00;;;;;;5007871;28;20658;-88
2023/11/09 10:08:01;;;;;;;1.83;1.40;;;15.00;7.80;;;;;;5006901;28;20207;-88
2023/11/09 10:10:32;;;;;;;2.35;1.30;;;14.90;9.20;;;;;;5015229;28;20199;-87
2023/11/09 10:12:59;;;;;;;4.03;3.22;;;14.70;9.80;;;;;;4995647;28;20194;-88
2023/11/09 10:15:26;;;;;;;2.78;1.60;;;14.80;7.70;;;;;;5008438;28;20196;-88
2023/11/09 10:17:54;;;;;;;5.38;1.50;;;14.70;9.50;;;;;;5006709;28;20215;-87
2023/11/09 10:20:21;;;;;;;1.52;1.23;;;14.70;9.50;;;;;;5004322;28;20203;-89
2023/11/09 10:22:50;;;;;;;4.50;2.88;;;14.60;8.60;;;;;;5015771;28;20230;-89
2023/11/09 10:25:18;;;;;;;2.55;1.60;;;14.90;7.70;;;;;;5023160;28;20221;-90
2023/11/09 10:27:48;;;;;;;2.92;2.60;;;14.80;8.20;;;;;;5011626;28;20302;-89
2023/11/09 10:30:16;;;;;;;3.00;1.40;;;15.10;7.80;;;;;;5006052;28;20702;-90
2023/11/09 10:32:44;;;;;;;1.95;1.10;;;15.20;7.90;;;;;;5009995;28;20195;-89
2023/11/09 10:35:13;;;;;;;2.25;1.40;;;15.00;7.70;;;;;;5020287;28;20194;-89
2023/11/09 10:37:43;;;;;;;2.55;1.65;;;14.80;8.50;;;;;;5014710;28;20856;-90
2023/11/09 10:40:13;;;;;;;4.35;1.40;;;14.60;7.50;;;;;;5024057;28;20248;-90
2023/11/09 10:42:41;;;;;;;1.92;1.77;;;14.60;7.50;;;;;;5010836;28;20543;-90
2023/11/09 10:45:11;;;;;;;2.40;1.20;;;14.50;8.50;;;;;;5014525;28;20276;-89
2023/11/09 10:47:46;;;;;;;2.72;1.38;;;14.40;8.80;;;;;;5025350;28;20196;-88
2023/11/09 10:50:14;;;;;;;4.93;1.73;;;14.00;7.10;;;;;;5024697;28;20187;-88
2023/11/09 10:52:45;;;;;;;1.00;1.00;;;13.90;7.30;;;;;;5003207;28;20689;-88
2023/11/09 10:55:16;;;;;;;2.15;1.30;;;13.90;9.20;;;;;;5011231;28;20645;-89
2023/11/09 10:57:48;;;;;;;2.95;1.98;;;13.80;9.40;;;;;;5010774;28;20192;-90
2023/11/09 11:00:26;;;;;;;4.45;2.10;;;13.90;9.80;;;;;;5012378;28;20238;-90
2023/11/09 11:02:55;;;;;;;1.73;1.35;;;14.00;7.10;;;;;;5008508;28;20231;-89
2023/11/09 11:05:26;;;;;;;1.67;1.23;;;13.90;7.50;;;;;;5002050;28;20280;-90
2023/11/09 11:07:59;;;;;;;1.10;1.00;;;13.80;8.30;;;;;;5013873;28;20203;-89
2023/11/09 11:10:30;;;;;;;1.08;1.00;;;13.80;7.00;;;;;;5012419;28;20282;-90
2023/11/09 11:13:03;;;;;;;2.20;1.10;;;13.80;10.50;;;;;;5009518;28;20704;-90
2023/11/09 11:15:54;;;;;;;2.25;1.30;;;13.70;9.20;;;;;;5003326;28;20214;-90
2023/11/09 11:18:36;;;;;;;1.20;1.10;;;13.60;10.40;;;;;;5011462;28;20644;-90
2023/11/09 11:21:20;;;;;;;2.55;1.27;;;13.50;9.10;;;;;;5011774;28;20219;-90
2023/11/09 11:24:16;;;;;;;2.65;1.50;;;13.40;9.60;;;;;;5009534;28;20314;-89
2023/11/09 11:26:55;;;;;;;1.75;1.40;;;13.40;10.60;;;;;;5006871;28;20217;-90
2023/11/09 11:29:26;;;;;;;1.55;1.30;;;13.10;10.70;;;;;;5016620;28;20229;-90
2023/11/09 11:31:53;;;;;;;4.75;1.52;;;13.10;10.30;;;;;;5020246;28;20671;-90
2023/11/09 11:34:45;;;;;;;1.08;0.98;;;13.00;11.70;;;;;;5011493;28;20282;-90
2023/11/09 11:37:14;;;;;;;1.38;1.27;;;13.00;11.30;;;;;;5011953;28;20214;-90
2023/11/09 11:39:41;;;;;;;2.15;1.15;;;13.10;12.50;;;;;;5013634;28;20199;-90
2023/11/09 11:42:19;;;;;;;2.25;1.33;;;13.30;11.60;;;;;;5010191;28;20234;-89
2023/11/09 11:44:54;;;;;;;2.03;1.33;;;13.10;10.90;;;;;;5008949;28;20287;-89
2023/11/09 11:47:22;;;;;;;2.03;1.50;;;13.00;11.40;;;;;;4979847;28;20205;-90
2023/11/09 11:49:50;;;;;;;2.28;1.50;;;13.00;11.50;;;;;;5005791;28;20652;-91
2023/11/09 11:52:23;;;;;;;2.28;1.92;;;13.00;11.70;;;;;;5010589;28;20222;-89
2023/11/09 11:54:51;;;;;;;3.03;1.55;;;12.90;12.10;;;;;;5012133;28;20203;-90
2023/11/09 11:57:20;;;;;;;1.80;1.30;;;13.00;12.60;;;;;;5022839;28;20304;-90
2023/11/09 12:00:08;;;;;;;1.40;1.30;;;13.10;12.50;;;;;;5014841;28;20195;-90
2023/11/09 12:02:35;;;;;;;2.35;1.50;;;13.00;13.50;;;;;;5014364;28;20675;-89
2023/11/09 12:05:02;;;;;;;3.33;1.77;;;13.00;12.50;;;;;;4974228;28;20199;-90
2023/11/09 12:07:34;;;;;;;2.15;1.73;;;13.00;12.50;;;;;;5006269;28;20242;-90
2023/11/09 12:10:02;;;;;;;2.50;1.35;;;13.00;13.80;;;;;;5005551;28;20192;-90
2023/11/09 12:12:31;;;;;;;2.17;1.90;;;13.10;13.00;;;;;;5009915;28;20203;-90
2023/11/09 12:15:00;;;;;;;1.50;1.35;;;13.20;11.30;;;;;;5018681;28;20203;-89
2023/11/09 12:17:27;;;;;;;3.42;1.95;;;13.30;13.40;;;;;;5013924;28;20204;-90
2023/11/09 12:19:54;;;;;;;2.08;1.83;;;13.60;12.70;;;;;;5018287;28;20204;-90
2023/11/09 12:22:22;;;;;;;1.85;1.60;;;13.80;10.80;;;;;;5002249;28;20274;-89
2023/11/09 12:25:00;;;;;;;4.18;1.50;;;13.90;12.80;;;;;;5021396;28;20203;-90
2023/11/09 12:27:27;;;;;;;2.80;1.48;;;13.80;11.10;;;;;;5014570;28;20683;-89
2023/11/09 12:29:56;;;;;;;1.42;1.33;;;13.70;11.20;;;;;;5018980;28;20710;-88
2023/11/09 12:32:23;;;;;;;2.33;2.13;;;13.70;11.70;;;;;;5013966;28;20203;-91
2023/11/09 12:34:50;;;;;;;1.92;1.55;;;13.60;11.60;;;;;;5019491;28;20246;-90
2023/11/09 12:37:18;;;;;;;2.10;1.40;;;13.50;11.40;;;;;;5022754;28;20205;-90
2023/11/09 12:39:44;;;;;;;2.03;1.83;;;13.50;13.00;;;;;;5011676;28;20230;-89
2023/11/09 12:42:18;;;;;;;1.88;1.63;;;13.50;12.70;;;;;;5015161;28;20214;-90
2023/11/09 12:44:47;;;;;;;1.50;1.30;;;13.40;12.90;;;;;;5010774;28;20731;-88
2023/11/09 12:47:20;;;;;;;1.65;1.25;;;13.50;12.60;;;;;;5002471;28;20208;-89
2023/11/09 12:49:51;;;;;;;1.92;1.70;;;13.50;11.40;;;;;;5013656;28;20705;-89
2023/11/09 12:52:18;;;;;;;2.00;1.80;;;13.50;12.20;;;;;;4995061;28;20235;-89
2023/11/09 12:54:46;;;;;;;3.45;3.15;;;13.40;12.70;;;;;;5001481;28;20195;-87
2023/11/09 12:57:17;;;;;;;1.58;1.25;;;13.50;11.80;;;;;;5011369;28;20199;-88
2023/11/09 12:59:45;;;;;;;1.60;1.50;;;13.40;11.70;;;;;;5015812;28;20280;-89
2023/11/09 13:02:17;;;;;;;4.10;1.58;;;13.30;11.70;;;;;;5014574;28;20206;-89
2023/11/09 13:04:48;;;;;;;2.67;1.70;;;13.10;13.10;;;;;;5017661;28;20207;-88
2023/11/09 13:07:16;;;;;;;1.55;1.35;;;13.00;13.50;;;;;;5015308;28;20196;-88
2023/11/09 13:09:46;;;;;;;2.10;1.55;;;12.90;13.60;;;;;;5011883;28;21076;-88
2023/11/09 13:12:32;;;;;;;5.72;1.80;;;12.80;13.80;;;;;;5011820;28;20300;-90
2023/11/09 13:17:50;;;;;;;1.65;1.52;;;12.80;13.60;;;;;;5011701;28;20282;-90